sensor_id;sensor_type;location;lat;lon;timestamp;temperature;humidity
6008;DHT22;3032;49.484;11.112;2023-07-29T00:01:08;20.00;99.90
6008;DHT22;3032;49.484;11.112;2023-07-29T00:03:33;20.30;99.90
6008;DHT22;3032;49.484;11.112;2023-07-29T00:05:59;20.60;99.90
6008;DHT22;3032;49.484;11.112;2023-07-29T00:08:24;20.60;99.90
6008;DHT22;3032;49.484;11.112;2023-07-29T00:10:50;20.70;99.90
6008;DHT22;3032;49.484;11.112;2023-07-29T00:13:15;20.70;99.90
6008;DHT22;3032;49.484;11.112;2023-07-29T00:15:41;20.50;99.90
6008;DHT22;3032;49.484;11.112;2023-07-29T00:18:06;20.20;99.90
6008;DHT22;3032;49.484;11.112;2023-07-29T00:20:32;20.20;99.90
6008;DHT22;3032;49.484;11.112;2023-07-29T00:22:57;20.00;99.90
6008;DHT22;3032;49.484;11.112;2023-07-29T00:25:24;19.90;99.90
6008;DHT22;3032;49.484;11.112;2023-07-29T00:27:49;19.80;99.90
6008;DHT22;3032;49.484;11.112;2023-07-29T00:30:15;19.80;99.90
6008;DHT22;3032;49.484;11.112;2023-07-29T00:32:41;19.80;99.90
6008;DHT22;3032;49.484;11.112;2023-07-29T00:35:07;19.50;99.90
6008;DHT22;3032;49.484;11.112;2023-07-29T00:37:32;19.50;99.90
6008;DHT22;3032;49.484;11.112;2023-07-29T00:39:58;20.00;99.90
6008;DHT22;3032;49.484;11.112;2023-07-29T00:42:24;19.50;99.90
6008;DHT22;3032;49.484;11.112;2023-07-29T00:44:50;19.40;99.90
6008;DHT22;3032;49.484;11.112;2023-07-29T00:47:16;19.50;99.90
6008;DHT22;3032;49.484;11.112;2023-07-29T00:49:43;19.50;99.90
6008;DHT22;3032;49.484;11.112;2023-07-29T00:52:09;19.80;99.90
6008;DHT22;3032;49.484;11.112;2023-07-29T00:54:40;20.10;99.90
6008;DHT22;3032;49.484;11.112;2023-07-29T00:57:08;20.20;99.90
6008;DHT22;3032;49.484;11.112;2023-07-29T00:59:35;20.50;99.90
6008;DHT22;3032;49.484;11.112;2023-07-29T01:02:01;20.20;99.90
6008;DHT22;3032;49.484;11.112;2023-07-29T01:04:27;20.40;99.90
6008;DHT22;3032;49.484;11.112;2023-07-29T01:17:33;19.90;99.90
6008;DHT22;3032;49.484;11.112;2023-07-29T01:20:08;20.00;99.90
6008;DHT22;3032;49.484;11.112;2023-07-29T01:22:35;20.00;99.90
6008;DHT22;3032;49.484;11.112;2023-07-29T01:25:02;20.50;99.90
6008;DHT22;3032;49.484;11.112;2023-07-29T01:27:28;19.80;99.90
6008;DHT22;3032;49.484;11.112;2023-07-29T01:29:54;19.70;99.90
6008;DHT22;3032;49.484;11.112;2023-07-29T01:34:59;19.90;99.90
6008;DHT22;3032;49.484;11.112;2023-07-29T01:37:26;19.70;99.90
6008;DHT22;3032;49.484;11.112;2023-07-29T01:39:56;19.60;99.90
6008;DHT22;3032;49.484;11.112;2023-07-29T01:42:23;19.80;99.90
6008;DHT22;3032;49.484;11.112;2023-07-29T01:44:49;19.70;99.90
6008;DHT22;3032;49.484;11.112;2023-07-29T01:47:15;20.10;99.90
6008;DHT22;3032;49.484;11.112;2023-07-29T01:49:41;19.60;99.90
6008;DHT22;3032;49.484;11.112;2023-07-29T01:52:06;19.60;99.90
6008;DHT22;3032;49.484;11.112;2023-07-29T01:54:32;19.50;99.90
6008;DHT22;3032;49.484;11.112;2023-07-29T01:56:57;19.50;99.90
6008;DHT22;3032;49.484;11.112;2023-07-29T01:59:23;19.50;99.90
6008;DHT22;3032;49.484;11.112;2023-07-29T02:01:48;19.60;99.90
6008;DHT22;3032;49.484;11.112;2023-07-29T02:04:14;19.50;99.90
6008;DHT22;3032;49.484;11.112;2023-07-29T02:06:40;19.40;99.90
6008;DHT22;3032;49.484;11.112;2023-07-29T02:09:05;19.50;99.90
6008;DHT22;3032;49.484;11.112;2023-07-29T02:11:31;19.60;99.90
6008;DHT22;3032;49.484;11.112;2023-07-29T02:13:56;19.40;99.90
6008;DHT22;3032;49.484;11.112;2023-07-29T02:16:22;19.40;99.90
6008;DHT22;3032;49.484;11.112;2023-07-29T02:18:49;19.70;99.90
6008;DHT22;3032;49.484;11.112;2023-07-29T02:21:15;19.90;99.90
6008;DHT22;3032;49.484;11.112;2023-07-29T02:23:41;19.10;99.90
6008;DHT22;3032;49.484;11.112;2023-07-29T02:26:06;19.20;99.90
6008;DHT22;3032;49.484;11.112;2023-07-29T02:28:32;19.30;99.90
6008;DHT22;3032;49.484;11.112;2023-07-29T02:31:19;19.40;99.90
6008;DHT22;3032;49.484;11.112;2023-07-29T02:33:45;19.30;99.90
6008;DHT22;3032;49.484;11.112;2023-07-29T02:36:12;19.10;99.90
6008;DHT22;3032;49.484;11.112;2023-07-29T02:38:38;19.10;99.90
6008;DHT22;3032;49.484;11.112;2023-07-29T02:41:04;18.90;99.90
6008;DHT22;3032;49.484;11.112;2023-07-29T02:43:29;18.80;99.90
6008;DHT22;3032;49.484;11.112;2023-07-29T02:45:55;18.70;99.90
6008;DHT22;3032;49.484;11.112;2023-07-29T02:48:21;18.80;99.90
6008;DHT22;3032;49.484;11.112;2023-07-29T02:50:46;19.00;99.90
6008;DHT22;3032;49.484;11.112;2023-07-29T02:53:12;18.80;99.90
6008;DHT22;3032;49.484;11.112;2023-07-29T02:55:40;18.60;99.90
6008;DHT22;3032;49.484;11.112;2023-07-29T02:58:06;18.50;99.90
6008;DHT22;3032;49.484;11.112;2023-07-29T03:00:32;18.50;99.90
6008;DHT22;3032;49.484;11.112;2023-07-29T03:02:58;18.60;99.90
6008;DHT22;3032;49.484;11.112;2023-07-29T03:05:26;18.50;99.90
6008;DHT22;3032;49.484;11.112;2023-07-29T03:07:52;18.60;99.90
6008;DHT22;3032;49.484;11.112;2023-07-29T03:10:17;18.40;99.90
6008;DHT22;3032;49.484;11.112;2023-07-29T03:12:43;18.20;99.90
6008;DHT22;3032;49.484;11.112;2023-07-29T03:15:09;18.30;99.90
6008;DHT22;3032;49.484;11.112;2023-07-29T03:17:34;18.20;99.90
6008;DHT22;3032;49.484;11.112;2023-07-29T03:20:00;18.30;99.90
6008;DHT22;3032;49.484;11.112;2023-07-29T03:22:25;18.40;99.90
6008;DHT22;3032;49.484;11.112;2023-07-29T03:24:51;18.50;99.90
6008;DHT22;3032;49.484;11.112;2023-07-29T03:27:17;18.50;99.90
6008;DHT22;3032;49.484;11.112;2023-07-29T03:29:42;18.90;99.90
6008;DHT22;3032;49.484;11.112;2023-07-29T03:32:08;18.80;99.90
6008;DHT22;3032;49.484;11.112;2023-07-29T03:34:34;18.90;99.90
6008;DHT22;3032;49.484;11.112;2023-07-29T03:37:00;19.00;99.90
6008;DHT22;3032;49.484;11.112;2023-07-29T03:39:26;18.70;99.90
6008;DHT22;3032;49.484;11.112;2023-07-29T03:41:52;18.90;99.90
6008;DHT22;3032;49.484;11.112;2023-07-29T03:44:18;18.40;99.90
6008;DHT22;3032;49.484;11.112;2023-07-29T03:46:44;18.40;99.90
6008;DHT22;3032;49.484;11.112;2023-07-29T03:49:10;18.50;99.90
6008;DHT22;3032;49.484;11.112;2023-07-29T03:51:36;18.50;99.90
6008;DHT22;3032;49.484;11.112;2023-07-29T03:54:01;18.90;99.90
6008;DHT22;3032;49.484;11.112;2023-07-29T03:56:27;18.70;99.90
6008;DHT22;3032;49.484;11.112;2023-07-29T03:58:52;19.10;99.90
6008;DHT22;3032;49.484;11.112;2023-07-29T04:01:19;18.70;99.90
6008;DHT22;3032;49.484;11.112;2023-07-29T04:03:45;18.80;99.90
6008;DHT22;3032;49.484;11.112;2023-07-29T04:06:11;18.80;99.90
6008;DHT22;3032;49.484;11.112;2023-07-29T04:08:37;18.80;99.90
6008;DHT22;3032;49.484;11.112;2023-07-29T04:11:03;18.80;99.90
6008;DHT22;3032;49.484;11.112;2023-07-29T04:13:28;18.80;99.90
6008;DHT22;3032;49.484;11.112;2023-07-29T04:15:54;18.80;99.90
6008;DHT22;3032;49.484;11.112;2023-07-29T04:18:19;18.80;99.90
6008;DHT22;3032;49.484;11.112;2023-07-29T04:20:45;18.80;99.90
6008;DHT22;3032;49.484;11.112;2023-07-29T04:23:10;19.00;99.90
6008;DHT22;3032;49.484;11.112;2023-07-29T04:25:37;18.90;99.90
6008;DHT22;3032;49.484;11.112;2023-07-29T04:28:02;18.80;99.90
6008;DHT22;3032;49.484;11.112;2023-07-29T04:30:30;18.80;99.90
6008;DHT22;3032;49.484;11.112;2023-07-29T04:32:55;18.90;99.90
6008;DHT22;3032;49.484;11.112;2023-07-29T04:35:21;19.90;99.90
6008;DHT22;3032;49.484;11.112;2023-07-29T04:37:46;21.30;99.90
6008;DHT22;3032;49.484;11.112;2023-07-29T04:40:13;22.50;99.90
6008;DHT22;3032;49.484;11.112;2023-07-29T04:42:39;23.00;99.90
6008;DHT22;3032;49.484;11.112;2023-07-29T04:45:05;24.40;99.90
6008;DHT22;3032;49.484;11.112;2023-07-29T04:47:31;25.00;99.90
6008;DHT22;3032;49.484;11.112;2023-07-29T04:49:56;25.70;99.90
6008;DHT22;3032;49.484;11.112;2023-07-29T04:52:22;25.30;99.90
6008;DHT22;3032;49.484;11.112;2023-07-29T04:54:47;25.20;99.90
6008;DHT22;3032;49.484;11.112;2023-07-29T04:57:13;25.10;99.90
6008;DHT22;3032;49.484;11.112;2023-07-29T04:59:39;25.50;99.90
6008;DHT22;3032;49.484;11.112;2023-07-29T05:02:04;26.70;99.90
6008;DHT22;3032;49.484;11.112;2023-07-29T05:04:30;27.30;99.90
6008;DHT22;3032;49.484;11.112;2023-07-29T05:06:55;26.70;99.90
6008;DHT22;3032;49.484;11.112;2023-07-29T05:09:21;25.90;99.90
6008;DHT22;3032;49.484;11.112;2023-07-29T05:11:47;25.20;99.90
6008;DHT22;3032;49.484;11.112;2023-07-29T05:14:17;24.90;99.90
6008;DHT22;3032;49.484;11.112;2023-07-29T05:16:43;24.10;99.90
6008;DHT22;3032;49.484;11.112;2023-07-29T05:19:09;23.10;99.90
6008;DHT22;3032;49.484;11.112;2023-07-29T05:21:34;22.50;99.90
6008;DHT22;3032;49.484;11.112;2023-07-29T05:24:00;22.70;99.90
6008;DHT22;3032;49.484;11.112;2023-07-29T05:26:25;22.60;99.90
6008;DHT22;3032;49.484;11.112;2023-07-29T05:28:51;22.60;99.90
6008;DHT22;3032;49.484;11.112;2023-07-29T05:31:17;21.90;99.90
6008;DHT22;3032;49.484;11.112;2023-07-29T05:33:43;21.60;99.90
6008;DHT22;3032;49.484;11.112;2023-07-29T05:36:09;21.50;99.90
6008;DHT22;3032;49.484;11.112;2023-07-29T05:38:34;20.70;99.90
6008;DHT22;3032;49.484;11.112;2023-07-29T05:41:00;20.70;99.90
6008;DHT22;3032;49.484;11.112;2023-07-29T05:43:27;20.90;99.90
6008;DHT22;3032;49.484;11.112;2023-07-29T05:45:53;20.40;99.90
6008;DHT22;3032;49.484;11.112;2023-07-29T05:48:19;20.30;99.90
6008;DHT22;3032;49.484;11.112;2023-07-29T05:50:45;20.30;99.90
6008;DHT22;3032;49.484;11.112;2023-07-29T05:53:11;20.20;99.90
6008;DHT22;3032;49.484;11.112;2023-07-29T05:55:36;20.20;99.90
6008;DHT22;3032;49.484;11.112;2023-07-29T05:58:02;20.50;99.90
6008;DHT22;3032;49.484;11.112;2023-07-29T06:00:27;19.80;99.90
6008;DHT22;3032;49.484;11.112;2023-07-29T06:02:53;19.90;99.90
6008;DHT22;3032;49.484;11.112;2023-07-29T06:05:18;20.30;99.90
6008;DHT22;3032;49.484;11.112;2023-07-29T06:07:44;20.40;99.90
6008;DHT22;3032;49.484;11.112;2023-07-29T06:10:14;20.90;99.90
6008;DHT22;3032;49.484;11.112;2023-07-29T06:12:43;21.20;99.90
6008;DHT22;3032;49.484;11.112;2023-07-29T06:15:09;21.20;99.90
6008;DHT22;3032;49.484;11.112;2023-07-29T06:17:34;21.10;99.90
6008;DHT22;3032;49.484;11.112;2023-07-29T06:20:00;20.80;99.90
6008;DHT22;3032;49.484;11.112;2023-07-29T06:22:25;21.10;99.90
6008;DHT22;3032;49.484;11.112;2023-07-29T06:24:51;21.10;99.90
6008;DHT22;3032;49.484;11.112;2023-07-29T06:27:16;21.10;99.90
6008;DHT22;3032;49.484;11.112;2023-07-29T06:29:42;20.90;99.90
6008;DHT22;3032;49.484;11.112;2023-07-29T06:32:07;20.30;99.90
6008;DHT22;3032;49.484;11.112;2023-07-29T06:34:33;20.70;99.90
6008;DHT22;3032;49.484;11.112;2023-07-29T06:36:58;20.80;99.90
6008;DHT22;3032;49.484;11.112;2023-07-29T06:39:24;21.20;99.90
6008;DHT22;3032;49.484;11.112;2023-07-29T06:41:49;20.60;99.90
6008;DHT22;3032;49.484;11.112;2023-07-29T06:44:15;20.80;99.90
6008;DHT22;3032;49.484;11.112;2023-07-29T06:46:40;20.80;99.90
6008;DHT22;3032;49.484;11.112;2023-07-29T06:49:06;20.80;99.90
6008;DHT22;3032;49.484;11.112;2023-07-29T06:51:32;21.50;99.90
6008;DHT22;3032;49.484;11.112;2023-07-29T06:54:00;21.10;99.90
6008;DHT22;3032;49.484;11.112;2023-07-29T06:56:26;20.60;99.90
6008;DHT22;3032;49.484;11.112;2023-07-29T06:58:51;19.70;99.90
6008;DHT22;3032;49.484;11.112;2023-07-29T07:01:17;18.90;99.90
6008;DHT22;3032;49.484;11.112;2023-07-29T07:03:42;18.60;99.90
6008;DHT22;3032;49.484;11.112;2023-07-29T07:06:08;18.90;99.90
6008;DHT22;3032;49.484;11.112;2023-07-29T07:08:33;19.10;99.90
6008;DHT22;3032;49.484;11.112;2023-07-29T07:10:59;19.30;99.90
6008;DHT22;3032;49.484;11.112;2023-07-29T07:13:24;19.60;99.90
6008;DHT22;3032;49.484;11.112;2023-07-29T07:15:50;19.70;99.90
6008;DHT22;3032;49.484;11.112;2023-07-29T07:18:15;19.70;99.90
6008;DHT22;3032;49.484;11.112;2023-07-29T07:20:41;19.40;99.90
6008;DHT22;3032;49.484;11.112;2023-07-29T07:23:07;19.40;99.90
6008;DHT22;3032;49.484;11.112;2023-07-29T07:25:36;19.70;99.90
6008;DHT22;3032;49.484;11.112;2023-07-29T07:28:02;19.70;99.90
6008;DHT22;3032;49.484;11.112;2023-07-29T07:30:27;19.40;99.90
6008;DHT22;3032;49.484;11.112;2023-07-29T07:32:53;19.80;99.90
6008;DHT22;3032;49.484;11.112;2023-07-29T07:35:18;20.40;99.90
6008;DHT22;3032;49.484;11.112;2023-07-29T07:37:44;20.60;99.90
6008;DHT22;3032;49.484;11.112;2023-07-29T07:40:10;20.90;99.90
6008;DHT22;3032;49.484;11.112;2023-07-29T07:42:36;20.80;99.90
6008;DHT22;3032;49.484;11.112;2023-07-29T07:45:02;21.20;99.90
6008;DHT22;3032;49.484;11.112;2023-07-29T07:47:27;21.70;99.90
6008;DHT22;3032;49.484;11.112;2023-07-29T07:49:53;21.80;99.90
6008;DHT22;3032;49.484;11.112;2023-07-29T07:52:18;21.30;99.90
6008;DHT22;3032;49.484;11.112;2023-07-29T07:54:44;21.60;99.90
6008;DHT22;3032;49.484;11.112;2023-07-29T07:57:09;21.40;99.90
6008;DHT22;3032;49.484;11.112;2023-07-29T07:59:35;21.60;99.90
6008;DHT22;3032;49.484;11.112;2023-07-29T08:02:01;21.60;99.90
6008;DHT22;3032;49.484;11.112;2023-07-29T08:04:26;21.40;99.90
6008;DHT22;3032;49.484;11.112;2023-07-29T08:06:52;20.90;99.90
6008;DHT22;3032;49.484;11.112;2023-07-29T08:09:17;20.70;99.90
6008;DHT22;3032;49.484;11.112;2023-07-29T08:11:43;20.50;99.90
6008;DHT22;3032;49.484;11.112;2023-07-29T08:14:08;20.40;99.90
6008;DHT22;3032;49.484;11.112;2023-07-29T08:16:34;20.00;99.90
6008;DHT22;3032;49.484;11.112;2023-07-29T08:18:59;20.10;99.90
6008;DHT22;3032;49.484;11.112;2023-07-29T08:21:26;19.20;99.90
6008;DHT22;3032;49.484;11.112;2023-07-29T08:23:52;18.90;99.90
6008;DHT22;3032;49.484;11.112;2023-07-29T08:26:18;19.30;99.90
6008;DHT22;3032;49.484;11.112;2023-07-29T08:28:43;19.50;99.90
6008;DHT22;3032;49.484;11.112;2023-07-29T08:31:09;19.50;99.90
6008;DHT22;3032;49.484;11.112;2023-07-29T08:33:35;19.30;99.90
6008;DHT22;3032;49.484;11.112;2023-07-29T08:36:01;19.30;99.90
6008;DHT22;3032;49.484;11.112;2023-07-29T08:38:27;19.10;99.90
6008;DHT22;3032;49.484;11.112;2023-07-29T08:41:14;18.90;99.90
6008;DHT22;3032;49.484;11.112;2023-07-29T08:43:50;18.80;99.90
6008;DHT22;3032;49.484;11.112;2023-07-29T08:46:16;18.90;99.90
6008;DHT22;3032;49.484;11.112;2023-07-29T08:48:43;19.20;99.90
6008;DHT22;3032;49.484;11.112;2023-07-29T08:51:10;19.40;99.90
6008;DHT22;3032;49.484;11.112;2023-07-29T08:53:37;19.70;99.90
6008;DHT22;3032;49.484;11.112;2023-07-29T08:56:03;19.50;99.90
6008;DHT22;3032;49.484;11.112;2023-07-29T08:58:29;19.60;99.90
6008;DHT22;3032;49.484;11.112;2023-07-29T09:00:55;19.90;99.90
6008;DHT22;3032;49.484;11.112;2023-07-29T09:03:21;20.40;99.90
6008;DHT22;3032;49.484;11.112;2023-07-29T09:05:47;20.60;99.90
6008;DHT22;3032;49.484;11.112;2023-07-29T09:08:13;20.70;99.90
6008;DHT22;3032;49.484;11.112;2023-07-29T09:10:39;20.70;99.90
6008;DHT22;3032;49.484;11.112;2023-07-29T09:13:05;21.00;99.90
6008;DHT22;3032;49.484;11.112;2023-07-29T09:15:33;21.10;99.90
6008;DHT22;3032;49.484;11.112;2023-07-29T09:17:59;21.60;99.90
6008;DHT22;3032;49.484;11.112;2023-07-29T09:20:28;21.60;99.90
6008;DHT22;3032;49.484;11.112;2023-07-29T09:22:55;21.60;99.90
6008;DHT22;3032;49.484;11.112;2023-07-29T09:25:24;21.40;99.90
6008;DHT22;3032;49.484;11.112;2023-07-29T09:27:50;20.80;99.90
6008;DHT22;3032;49.484;11.112;2023-07-29T09:30:17;21.50;99.90
6008;DHT22;3032;49.484;11.112;2023-07-29T09:32:42;21.20;99.90
6008;DHT22;3032;49.484;11.112;2023-07-29T09:35:10;21.30;99.90
6008;DHT22;3032;49.484;11.112;2023-07-29T09:37:38;21.50;99.90
6008;DHT22;3032;49.484;11.112;2023-07-29T09:40:04;20.90;99.90
6008;DHT22;3032;49.484;11.112;2023-07-29T09:42:30;21.00;99.90
6008;DHT22;3032;49.484;11.112;2023-07-29T09:44:55;21.00;99.90
6008;DHT22;3032;49.484;11.112;2023-07-29T09:47:22;21.70;99.90
6008;DHT22;3032;49.484;11.112;2023-07-29T09:49:49;21.30;99.90
6008;DHT22;3032;49.484;11.112;2023-07-29T09:52:19;21.30;99.90
6008;DHT22;3032;49.484;11.112;2023-07-29T09:54:46;21.40;99.90
6008;DHT22;3032;49.484;11.112;2023-07-29T09:57:16;22.10;99.90
6008;DHT22;3032;49.484;11.112;2023-07-29T09:59:43;21.80;99.90
6008;DHT22;3032;49.484;11.112;2023-07-29T10:02:13;22.00;99.90
6008;DHT22;3032;49.484;11.112;2023-07-29T10:04:41;21.80;99.90
6008;DHT22;3032;49.484;11.112;2023-07-29T10:07:09;21.90;99.90
6008;DHT22;3032;49.484;11.112;2023-07-29T10:09:36;21.80;99.90
6008;DHT22;3032;49.484;11.112;2023-07-29T10:12:03;21.80;99.90
6008;DHT22;3032;49.484;11.112;2023-07-29T10:14:31;21.80;99.90
6008;DHT22;3032;49.484;11.112;2023-07-29T10:16:57;22.60;99.90
6008;DHT22;3032;49.484;11.112;2023-07-29T10:19:24;22.80;99.90
6008;DHT22;3032;49.484;11.112;2023-07-29T10:21:51;22.70;99.90
6008;DHT22;3032;49.484;11.112;2023-07-29T10:24:19;23.20;99.90
6008;DHT22;3032;49.484;11.112;2023-07-29T10:26:49;23.80;99.90
6008;DHT22;3032;49.484;11.112;2023-07-29T10:29:19;24.50;99.90
6008;DHT22;3032;49.484;11.112;2023-07-29T10:31:48;24.40;99.90
6008;DHT22;3032;49.484;11.112;2023-07-29T10:34:17;25.00;99.90
6008;DHT22;3032;49.484;11.112;2023-07-29T10:36:45;25.50;99.90
6008;DHT22;3032;49.484;11.112;2023-07-29T10:39:12;25.10;99.90
6008;DHT22;3032;49.484;11.112;2023-07-29T10:42:00;25.10;99.90
6008;DHT22;3032;49.484;11.112;2023-07-29T10:47:26;26.00;99.90
6008;DHT22;3032;49.484;11.112;2023-07-29T10:49:55;25.90;99.90
6008;DHT22;3032;49.484;11.112;2023-07-29T10:55:00;25.70;99.90
6008;DHT22;3032;49.484;11.112;2023-07-29T10:59:58;26.30;99.90
6008;DHT22;3032;49.484;11.112;2023-07-29T11:02:36;27.10;99.90
6008;DHT22;3032;49.484;11.112;2023-07-29T11:05:06;28.00;99.90
6008;DHT22;3032;49.484;11.112;2023-07-29T11:07:46;28.70;99.90
6008;DHT22;3032;49.484;11.112;2023-07-29T11:10:13;29.30;99.90
6008;DHT22;3032;49.484;11.112;2023-07-29T11:12:45;29.80;99.90
6008;DHT22;3032;49.484;11.112;2023-07-29T11:15:28;30.30;99.90
6008;DHT22;3032;49.484;11.112;2023-07-29T11:17:54;30.30;99.90
6008;DHT22;3032;49.484;11.112;2023-07-29T11:20:22;29.90;99.90
6008;DHT22;3032;49.484;11.112;2023-07-29T11:22:48;29.50;99.90
6008;DHT22;3032;49.484;11.112;2023-07-29T11:25:15;29.50;99.90
6008;DHT22;3032;49.484;11.112;2023-07-29T11:27:42;29.40;99.90
6008;DHT22;3032;49.484;11.112;2023-07-29T11:30:09;29.40;99.90
6008;DHT22;3032;49.484;11.112;2023-07-29T11:32:37;29.50;99.90
6008;DHT22;3032;49.484;11.112;2023-07-29T11:35:07;29.40;99.90
6008;DHT22;3032;49.484;11.112;2023-07-29T11:37:34;29.20;99.90
6008;DHT22;3032;49.484;11.112;2023-07-29T11:40:00;29.00;99.90
6008;DHT22;3032;49.484;11.112;2023-07-29T11:42:27;28.80;99.90
6008;DHT22;3032;49.484;11.112;2023-07-29T11:44:55;28.50;99.90
6008;DHT22;3032;49.484;11.112;2023-07-29T11:47:21;28.40;99.90
6008;DHT22;3032;49.484;11.112;2023-07-29T11:49:47;28.00;99.90
6008;DHT22;3032;49.484;11.112;2023-07-29T11:52:13;28.50;99.90
6008;DHT22;3032;49.484;11.112;2023-07-29T11:54:39;29.50;99.90
6008;DHT22;3032;49.484;11.112;2023-07-29T11:57:08;30.50;99.90
6008;DHT22;3032;49.484;11.112;2023-07-29T11:59:35;30.90;99.90
6008;DHT22;3032;49.484;11.112;2023-07-29T12:02:05;31.50;99.90
6008;DHT22;3032;49.484;11.112;2023-07-29T12:04:30;30.50;99.90
6008;DHT22;3032;49.484;11.112;2023-07-29T12:06:57;30.00;99.90
6008;DHT22;3032;49.484;11.112;2023-07-29T12:09:23;30.30;99.90
6008;DHT22;3032;49.484;11.112;2023-07-29T12:11:48;30.80;99.90
6008;DHT22;3032;49.484;11.112;2023-07-29T12:14:16;31.10;99.90
6008;DHT22;3032;49.484;11.112;2023-07-29T12:16:47;31.80;99.90
6008;DHT22;3032;49.484;11.112;2023-07-29T12:19:14;32.20;99.90
6008;DHT22;3032;49.484;11.112;2023-07-29T12:21:42;32.00;99.90
6008;DHT22;3032;49.484;11.112;2023-07-29T12:24:08;32.20;99.90
6008;DHT22;3032;49.484;11.112;2023-07-29T12:26:36;32.90;99.90
6008;DHT22;3032;49.484;11.112;2023-07-29T12:29:15;34.20;99.90
6008;DHT22;3032;49.484;11.112;2023-07-29T12:31:41;34.00;99.30
6008;DHT22;3032;49.484;11.112;2023-07-29T12:34:07;34.40;98.90
6008;DHT22;3032;49.484;11.112;2023-07-29T12:36:43;33.80;97.60
6008;DHT22;3032;49.484;11.112;2023-07-29T12:39:23;33.90;97.60
6008;DHT22;3032;49.484;11.112;2023-07-29T12:41:51;34.20;97.00
6008;DHT22;3032;49.484;11.112;2023-07-29T12:44:17;34.00;97.30
6008;DHT22;3032;49.484;11.112;2023-07-29T12:46:43;33.70;95.10
6008;DHT22;3032;49.484;11.112;2023-07-29T12:49:09;33.50;96.50
6008;DHT22;3032;49.484;11.112;2023-07-29T12:51:35;32.80;97.50
6008;DHT22;3032;49.484;11.112;2023-07-29T12:54:01;32.40;97.10
6008;DHT22;3032;49.484;11.112;2023-07-29T12:56:28;32.00;98.90
6008;DHT22;3032;49.484;11.112;2023-07-29T12:58:54;31.70;99.10
6008;DHT22;3032;49.484;11.112;2023-07-29T13:01:19;32.60;98.90
6008;DHT22;3032;49.484;11.112;2023-07-29T13:03:45;33.50;96.70
6008;DHT22;3032;49.484;11.112;2023-07-29T13:06:11;33.70;96.70
6008;DHT22;3032;49.484;11.112;2023-07-29T13:08:36;34.20;95.80
6008;DHT22;3032;49.484;11.112;2023-07-29T13:11:03;34.50;94.20
6008;DHT22;3032;49.484;11.112;2023-07-29T13:13:29;35.00;93.80
6008;DHT22;3032;49.484;11.112;2023-07-29T13:15:54;35.00;93.80
6008;DHT22;3032;49.484;11.112;2023-07-29T13:18:21;34.70;91.70
6008;DHT22;3032;49.484;11.112;2023-07-29T13:20:47;34.50;92.20
6008;DHT22;3032;49.484;11.112;2023-07-29T13:23:12;34.30;92.50
6008;DHT22;3032;49.484;11.112;2023-07-29T13:25:38;33.60;93.40
6008;DHT22;3032;49.484;11.112;2023-07-29T13:28:04;33.80;92.00
6008;DHT22;3032;49.484;11.112;2023-07-29T13:30:30;33.90;93.20
6008;DHT22;3032;49.484;11.112;2023-07-29T13:32:55;33.80;94.20
6008;DHT22;3032;49.484;11.112;2023-07-29T13:35:21;33.80;92.40
6008;DHT22;3032;49.484;11.112;2023-07-29T13:37:46;33.60;92.10
6008;DHT22;3032;49.484;11.112;2023-07-29T13:40:12;33.20;92.20
6008;DHT22;3032;49.484;11.112;2023-07-29T13:42:38;33.10;92.40
6008;DHT22;3032;49.484;11.112;2023-07-29T13:45:04;33.30;91.50
6008;DHT22;3032;49.484;11.112;2023-07-29T13:47:29;33.40;91.70
6008;DHT22;3032;49.484;11.112;2023-07-29T13:49:55;33.60;92.00
6008;DHT22;3032;49.484;11.112;2023-07-29T13:52:21;33.70;90.60
6008;DHT22;3032;49.484;11.112;2023-07-29T13:54:46;33.70;90.80
6008;DHT22;3032;49.484;11.112;2023-07-29T13:57:11;33.50;90.30
6008;DHT22;3032;49.484;11.112;2023-07-29T13:59:37;33.50;90.80
6008;DHT22;3032;49.484;11.112;2023-07-29T14:02:06;34.00;88.80
6008;DHT22;3032;49.484;11.112;2023-07-29T14:04:32;33.10;89.20
6008;DHT22;3032;49.484;11.112;2023-07-29T14:06:58;32.90;90.60
6008;DHT22;3032;49.484;11.112;2023-07-29T14:09:24;33.00;91.30
6008;DHT22;3032;49.484;11.112;2023-07-29T14:11:50;33.20;91.70
6008;DHT22;3032;49.484;11.112;2023-07-29T14:14:15;33.20;90.70
6008;DHT22;3032;49.484;11.112;2023-07-29T14:16:41;33.40;91.10
6008;DHT22;3032;49.484;11.112;2023-07-29T14:19:06;33.20;91.00
6008;DHT22;3032;49.484;11.112;2023-07-29T14:21:32;33.40;90.40
6008;DHT22;3032;49.484;11.112;2023-07-29T14:23:58;33.70;90.30
6008;DHT22;3032;49.484;11.112;2023-07-29T14:26:23;33.00;89.80
6008;DHT22;3032;49.484;11.112;2023-07-29T14:28:49;32.00;90.70
6008;DHT22;3032;49.484;11.112;2023-07-29T14:31:15;31.30;91.30
6008;DHT22;3032;49.484;11.112;2023-07-29T14:33:42;31.10;92.20
6008;DHT22;3032;49.484;11.112;2023-07-29T14:36:08;31.30;91.50
6008;DHT22;3032;49.484;11.112;2023-07-29T14:38:34;31.50;92.10
6008;DHT22;3032;49.484;11.112;2023-07-29T14:41:00;31.50;91.70
6008;DHT22;3032;49.484;11.112;2023-07-29T14:43:25;31.50;92.30
6008;DHT22;3032;49.484;11.112;2023-07-29T14:45:51;31.10;91.50
6008;DHT22;3032;49.484;11.112;2023-07-29T14:48:16;31.40;91.60
6008;DHT22;3032;49.484;11.112;2023-07-29T14:50:42;31.50;92.20
6008;DHT22;3032;49.484;11.112;2023-07-29T14:53:09;31.60;90.80
6008;DHT22;3032;49.484;11.112;2023-07-29T14:55:35;31.30;90.80
6008;DHT22;3032;49.484;11.112;2023-07-29T14:58:00;31.50;90.80
6008;DHT22;3032;49.484;11.112;2023-07-29T15:00:27;32.00;90.90
6008;DHT22;3032;49.484;11.112;2023-07-29T15:02:53;32.20;90.20
6008;DHT22;3032;49.484;11.112;2023-07-29T15:05:18;32.50;89.10
6008;DHT22;3032;49.484;11.112;2023-07-29T15:07:44;32.50;89.00
6008;DHT22;3032;49.484;11.112;2023-07-29T15:10:09;33.00;87.70
6008;DHT22;3032;49.484;11.112;2023-07-29T15:12:35;32.40;87.10
6008;DHT22;3032;49.484;11.112;2023-07-29T15:15:01;32.20;89.10
6008;DHT22;3032;49.484;11.112;2023-07-29T15:17:26;31.80;87.80
6008;DHT22;3032;49.484;11.112;2023-07-29T15:19:52;31.40;90.00
6008;DHT22;3032;49.484;11.112;2023-07-29T15:22:18;31.60;90.60
6008;DHT22;3032;49.484;11.112;2023-07-29T15:24:43;32.00;89.40
6008;DHT22;3032;49.484;11.112;2023-07-29T15:27:10;31.90;89.00
6008;DHT22;3032;49.484;11.112;2023-07-29T15:29:36;32.40;87.10
6008;DHT22;3032;49.484;11.112;2023-07-29T15:32:01;31.50;88.40
6008;DHT22;3032;49.484;11.112;2023-07-29T15:34:27;31.20;86.00
6008;DHT22;3032;49.484;11.112;2023-07-29T15:36:59;31.00;88.40
6008;DHT22;3032;49.484;11.112;2023-07-29T15:39:25;31.00;88.80
6008;DHT22;3032;49.484;11.112;2023-07-29T15:41:51;30.70;89.10
6008;DHT22;3032;49.484;11.112;2023-07-29T15:44:17;30.50;90.00
6008;DHT22;3032;49.484;11.112;2023-07-29T15:46:43;30.40;86.70
6008;DHT22;3032;49.484;11.112;2023-07-29T15:49:08;30.70;88.40
6008;DHT22;3032;49.484;11.112;2023-07-29T15:51:35;29.60;90.30
6008;DHT22;3032;49.484;11.112;2023-07-29T15:54:01;29.10;91.40
6008;DHT22;3032;49.484;11.112;2023-07-29T15:56:29;28.80;91.60
6008;DHT22;3032;49.484;11.112;2023-07-29T15:58:56;28.00;92.10
6008;DHT22;3032;49.484;11.112;2023-07-29T16:01:22;27.70;91.50